Time;durP1;ratioP1;P1;durP2;ratioP2;P2;SDS_P1;SDS_P2;PMS_P1;PMS_P2;Temp;Humidity;BMP_temperature;BMP_pressure;BME280_temperature;BME280_humidity;BME280_pressure;Samples;Min_cycle;Max_cycle;Signal;HPM_P1;HPM_P2
2022/12/31 00:01:50;;;;;;;77.42;33.65;;;;;;;1.10;85.39;98611.89;1763610;79;25778;-67
2022/12/31 00:04:17;;;;;;;80.47;31.97;;;;;;;1.19;86.14;98609.03;1785077;79;25655;-67
2022/12/31 00:06:43;;;;;;;68.90;29.02;;;;;;;1.36;86.90;98602.16;1789584;79;25473;-67
2022/12/31 00:09:10;;;;;;;49.45;20.43;;;;;;;1.56;87.98;98595.89;1808779;78;25456;-67
2022/12/31 00:11:37;;;;;;;43.38;18.98;;;;;;;1.78;88.64;98593.11;1800983;78;27489;-67
2022/12/31 00:14:05;;;;;;;53.50;21.15;;;;;;;2.02;89.53;98585.19;1801138;78;25442;-67
2022/12/31 00:16:36;;;;;;;50.73;21.23;;;;;;;2.21;88.27;98586.94;1800710;78;25695;-67
2022/12/31 00:19:04;;;;;;;39.88;17.55;;;;;;;2.36;88.52;98588.39;1819374;78;26101;-67
2022/12/31 00:21:32;;;;;;;34.58;16.55;;;;;;;2.50;88.36;98587.92;1801439;78;25474;-67
2022/12/31 00:23:59;;;;;;;22.45;11.45;;;;;;;2.59;88.07;98573.38;1775573;78;27551;-67
2022/12/31 00:26:29;;;;;;;31.97;14.83;;;;;;;2.66;88.74;98583.42;1801265;78;25476;-67
2022/12/31 00:28:57;;;;;;;30.10;12.35;;;;;;;2.74;88.58;98583.46;1775298;78;25627;-67
2022/12/31 00:31:28;;;;;;;41.13;19.48;;;;;;;2.81;88.34;98590.80;1833306;78;25440;-67
2022/12/31 00:33:55;;;;;;;39.90;17.82;;;;;;;2.89;87.25;98592.18;1832861;78;25599;-67
2022/12/31 00:36:26;;;;;;;27.25;13.35;;;;;;;2.96;87.24;98587.86;1801022;78;27420;-67
2022/12/31 00:38:55;;;;;;;41.13;18.23;;;;;;;3.03;87.43;98590.34;1831438;78;25695;-67
2022/12/31 00:41:23;;;;;;;37.25;18.27;;;;;;;3.10;86.98;98599.02;1790887;78;25489;-67
2022/12/31 00:43:50;;;;;;;35.63;18.82;;;;;;;3.15;86.58;98600.40;1801062;78;25794;-67
2022/12/31 00:46:16;;;;;;;50.23;21.70;;;;;;;3.20;86.56;98605.81;1790489;78;25470;-67
2022/12/31 00:48:44;;;;;;;37.33;16.35;;;;;;;3.25;86.24;98609.08;1801391;78;27630;-67
2022/12/31 00:51:14;;;;;;;41.48;18.42;;;;;;;3.30;86.08;98604.22;1801244;78;25686;-67
2022/12/31 00:53:41;;;;;;;37.45;17.35;;;;;;;3.32;86.04;98605.59;1801452;78;25630;-67
2022/12/31 00:56:15;;;;;;;39.98;19.27;;;;;;;3.35;85.83;98611.84;1800979;78;25496;-67
2022/12/31 00:58:42;;;;;;;31.85;16.05;;;;;;;3.38;85.78;98623.50;1833243;78;25610;-67
2022/12/31 01:01:11;;;;;;;33.42;16.10;;;;;;;3.41;85.90;98622.14;1759453;78;27458;-67
2022/12/31 01:03:37;;;;;;;20.43;10.68;;;;;;;3.44;85.90;98620.25;1775131;78;25637;-68
2022/12/31 01:06:08;;;;;;;28.12;13.48;;;;;;;3.47;86.52;98615.66;1774638;78;25652;-67
2022/12/31 01:08:41;;;;;;;32.08;15.18;;;;;;;3.50;86.52;98615.13;1759891;78;26249;-67
2022/12/31 01:11:23;;;;;;;31.23;14.98;;;;;;;3.56;86.37;98626.77;1775589;78;25652;-67
2022/12/31 01:13:58;;;;;;;32.75;16.42;;;;;;;3.61;86.41;98617.84;1827935;78;27357;-66
2022/12/31 01:16:32;;;;;;;24.57;11.85;;;;;;;3.68;86.31;98623.81;1800265;78;25833;-66
2022/12/31 01:19:01;;;;;;;22.62;10.75;;;;;;;3.75;86.93;98611.36;1776741;78;25634;-67
2022/12/31 01:21:29;;;;;;;29.32;14.10;;;;;;;3.82;87.03;98602.41;1775170;78;25462;-66
2022/12/31 01:23:56;;;;;;;19.55;9.15;;;;;;;3.92;86.58;98608.39;1801246;78;25495;-66
2022/12/31 01:26:23;;;;;;;27.73;13.98;;;;;;;3.98;86.82;98607.31;1773615;78;27321;-66
2022/12/31 01:28:49;;;;;;;32.58;16.40;;;;;;;4.07;86.27;98620.31;1833065;78;25638;-66
2022/12/31 01:31:19;;;;;;;29.20;13.95;;;;;;;4.08;86.19;98630.89;1774665;78;25762;-66
2022/12/31 01:33:47;;;;;;;28.98;15.18;;;;;;;4.11;86.16;98645.27;1791371;78;26257;-66
2022/12/31 01:36:23;;;;;;;32.88;14.75;;;;;;;4.14;86.14;98642.55;1801165;78;25720;-66
2022/12/31 01:38:50;;;;;;;24.12;11.35;;;;;;;4.18;86.19;98638.23;1776837;78;27446;-66
2022/12/31 01:41:21;;;;;;;25.85;13.53;;;;;;;4.22;86.33;98627.09;1801249;78;25958;-66
2022/12/31 01:43:57;;;;;;;29.82;13.75;;;;;;;4.27;86.18;98622.20;1801277;78;25759;-66
2022/12/31 01:46:41;;;;;;;27.55;15.45;;;;;;;4.28;86.07;98640.11;1803406;78;25799;-66
2022/12/31 01:49:42;;;;;;;29.37;14.00;;;;;;;4.29;86.14;98640.92;1831240;78;25629;-66
2022/12/31 01:52:34;;;;;;;24.92;13.13;;;;;;;4.30;86.69;98654.75;1819377;78;27493;-66
2022/12/31 01:55:20;;;;;;;26.10;12.78;;;;;;;4.30;86.73;98646.61;1833525;78;25589;-66
2022/12/31 01:57:50;;;;;;;31.27;14.43;;;;;;;4.34;86.79;98642.27;1800791;78;25607;-66
2022/12/31 02:00:17;;;;;;;27.00;13.70;;;;;;;4.42;86.98;98636.83;1802147;78;25630;-67
2022/12/31 02:02:43;;;;;;;17.32;8.60;;;;;;;4.51;86.95;98626.52;1800952;78;25725;-68
2022/12/31 02:05:26;;;;;;;21.65;12.35;;;;;;;4.58;87.34;98619.43;1800860;78;27518;-68
2022/12/31 02:07:53;;;;;;;24.77;13.25;;;;;;;4.64;86.69;98622.97;1833251;78;25719;-67
2022/12/31 02:10:20;;;;;;;30.62;14.58;;;;;;;4.71;86.42;98633.52;1800772;78;25519;-67
2022/12/31 02:12:48;;;;;;;21.80;11.03;;;;;;;4.75;86.19;98638.69;1801460;78;25667;-68
2022/12/31 02:15:15;;;;;;;29.70;13.78;;;;;;;4.77;86.40;98625.63;1801175;78;25520;-68
2022/12/31 02:17:52;;;;;;;27.60;13.30;;;;;;;4.79;86.42;98623.47;1833371;78;27325;-68
2022/12/31 02:20:36;;;;;;;35.50;17.85;;;;;;;4.84;86.31;98644.36;1833426;78;25643;-68
2022/12/31 02:23:35;;;;;;;30.77;16.17;;;;;;;4.87;86.19;98638.38;1833646;78;25556;-69
2022/12/31 02:26:36;;;;;;;28.73;14.23;;;;;;;4.90;86.18;98639.98;1732344;82;26681;-69
2022/12/31 02:29:35;;;;;;;20.62;11.68;;;;;;;4.88;86.76;98627.24;1717899;82;25460;-67
2022/12/31 02:32:39;;;;;;;17.77;8.83;;;;;;;4.87;86.62;98616.66;1732118;82;27542;-69
2022/12/31 02:35:11;;;;;;;23.40;11.30;;;;;;;4.83;86.78;98610.95;1731915;82;25837;-70
2022/12/31 02:37:41;;;;;;;20.57;11.30;;;;;;;4.83;86.86;98615.56;1731455;82;25821;-70
2022/12/31 02:40:13;;;;;;;25.97;13.10;;;;;;;4.82;87.10;98621.55;1683780;82;25563;-69
2022/12/31 02:42:39;;;;;;;27.52;14.83;;;;;;;4.84;87.24;98614.49;1731981;82;25704;-70
2022/12/31 02:45:09;;;;;;;24.35;12.73;;;;;;;4.88;87.57;98608.77;1661358;82;27598;-69
2022/12/31 02:48:15;;;;;;;18.98;11.50;;;;;;;4.94;87.68;98595.44;1704557;82;25864;-69
2022/12/31 02:50:55;;;;;;;16.85;9.75;;;;;;;5.02;87.56;98598.95;1732048;82;25527;-68
2022/12/31 02:53:42;;;;;;;26.10;12.57;;;;;;;5.10;87.25;98604.89;1732131;82;25916;-68
2022/12/31 02:56:29;;;;;;;19.85;11.40;;;;;;;5.13;86.73;98612.48;1717063;82;25650;-68
2022/12/31 03:02:14;;;;;;;21.50;10.50;;;;;;;5.11;86.76;98609.22;1731809;82;25843;-68
2022/12/31 03:04:56;;;;;;;13.78;7.05;;;;;;;5.08;86.74;98609.23;1800917;78;25438;-68
2022/12/31 03:07:30;;;;;;;26.10;13.00;;;;;;;5.05;87.06;98616.59;1801568;78;25617;-68
2022/12/31 03:09:57;;;;;;;23.67;12.25;;;;;;;5.04;86.76;98622.30;1775111;78;25722;-68
2022/12/31 03:12:46;;;;;;;20.88;10.68;;;;;;;5.05;86.72;98629.34;1773497;78;27525;-67
2022/12/31 03:15:21;;;;;;;22.30;12.23;;;;;;;5.06;86.80;98638.58;1833358;78;25659;-68
2022/12/31 03:18:07;;;;;;;19.65;11.75;;;;;;;5.08;86.77;98637.77;1817452;78;25503;-68
2022/12/31 03:23:36;;;;;;;20.70;11.88;;;;;;;5.16;86.63;98651.31;1750479;81;25816;-68
2022/12/31 03:26:10;;;;;;;22.82;13.13;;;;;;;5.21;86.59;98659.99;1750774;81;27604;-68
2022/12/31 03:28:39;;;;;;;17.23;9.68;;;;;;;5.24;87.03;98668.95;1701020;82;25750;-68
2022/12/31 03:31:06;;;;;;;21.97;11.00;;;;;;;5.29;87.00;98668.12;1725678;81;25668;-68
2022/12/31 03:33:36;;;;;;;18.75;10.35;;;;;;;5.33;87.01;98675.97;1677272;81;27183;-68
2022/12/31 03:36:05;;;;;;;21.27;10.80;;;;;;;5.37;87.00;98665.63;1678105;81;25805;-68
2022/12/31 03:38:32;;;;;;;16.42;8.83;;;;;;;5.40;86.79;98666.42;1725584;81;27549;-68
2022/12/31 03:40:58;;;;;;;22.80;13.28;;;;;;;5.44;86.83;98672.66;1654815;81;25659;-68
2022/12/31 03:43:24;;;;;;;22.27;11.35;;;;;;;5.44;86.71;98672.66;1722216;81;25679;-68
2022/12/31 03:45:53;;;;;;;21.68;12.15;;;;;;;5.45;86.79;98671.03;1721576;82;25814;-68
2022/12/31 03:48:22;;;;;;;20.50;10.68;;;;;;;5.46;86.69;98671.82;1725788;81;25802;-69
2022/12/31 03:50:49;;;;;;;16.95;9.43;;;;;;;5.47;86.77;98670.75;1701787;81;27274;-68
2022/12/31 03:53:16;;;;;;;15.05;8.33;;;;;;;5.48;86.92;98664.21;1654300;82;25823;-68
2022/12/31 03:55:42;;;;;;;15.70;8.93;;;;;;;5.51;87.13;98668.55;1725592;81;25737;-68
2022/12/31 03:58:08;;;;;;;16.40;8.60;;;;;;;5.54;87.14;98668.53;1762284;78;26077;-68
2022/12/31 04:00:34;;;;;;;13.45;7.42;;;;;;;5.58;87.11;98664.72;1773466;78;25744;-68
2022/12/31 04:03:01;;;;;;;12.85;6.47;;;;;;;5.60;87.09;98659.79;1774872;78;27440;-68
2022/12/31 04:05:27;;;;;;;15.15;8.38;;;;;;;5.61;87.33;98654.08;1772648;78;25698;-68
2022/12/31 04:07:54;;;;;;;13.43;7.03;;;;;;;5.61;87.22;98647.81;1773095;78;25691;-68
2022/12/31 04:10:20;;;;;;;13.60;7.87;;;;;;;5.61;87.58;98654.61;1802259;78;25680;-69
2022/12/31 04:12:47;;;;;;;19.32;10.05;;;;;;;5.64;87.67;98660.31;1803561;78;25480;-69
2022/12/31 04:15:20;;;;;;;18.82;10.58;;;;;;;5.70;87.41;98660.29;1803165;78;27454;-69
2022/12/31 04:17:47;;;;;;;15.83;9.25;;;;;;;5.73;87.11;98655.09;1803220;78;25693;-69
2022/12/31 04:20:14;;;;;;;17.92;10.18;;;;;;;5.74;87.32;98660.81;1831426;78;25702;-68
2022/12/31 04:22:40;;;;;;;23.25;12.30;;;;;;;5.76;87.13;98672.20;1803269;78;25734;-68
2022/12/31 04:25:11;;;;;;;17.98;10.50;;;;;;;5.80;86.93;98670.28;1831496;78;25631;-68
2022/12/31 04:27:45;;;;;;;23.50;12.30;;;;;;;5.81;86.80;98670.56;1803522;78;28329;-68
2022/12/31 04:30:13;;;;;;;8.80;4.58;;;;;;;5.81;86.81;98676.80;1803694;78;25694;-68
2022/12/31 04:32:40;;;;;;;19.25;9.98;;;;;;;5.77;87.19;98687.98;1803317;78;25793;-69
2022/12/31 04:35:08;;;;;;;15.08;9.03;;;;;;;5.74;86.92;98692.08;1803407;78;25674;-69
2022/12/31 04:37:35;;;;;;;14.70;8.25;;;;;;;5.71;87.00;98683.13;1799150;78;25512;-68
2022/12/31 04:40:01;;;;;;;17.52;9.83;;;;;;;5.64;87.44;98682.59;1803251;78;27310;-68
2022/12/31 04:42:28;;;;;;;19.15;9.88;;;;;;;5.65;87.39;98682.88;1803164;78;25798;-68
2022/12/31 04:44:54;;;;;;;18.75;8.60;;;;;;;5.68;87.27;98678.78;1751472;78;25700;-68
2022/12/31 04:47:20;;;;;;;23.92;12.55;;;;;;;5.71;87.45;98689.92;1802894;78;27517;-69
2022/12/31 04:49:47;;;;;;;17.77;10.13;;;;;;;5.74;87.16;98688.00;1798713;78;26442;-68
2022/12/31 04:52:13;;;;;;;18.20;10.55;;;;;;;5.80;87.19;98692.86;1803297;78;27425;-68
2022/12/31 04:54:39;;;;;;;19.05;9.45;;;;;;;5.85;87.27;98682.50;1776911;78;25450;-68
2022/12/31 04:57:06;;;;;;;19.73;10.13;;;;;;;5.90;87.17;98687.88;1802733;78;25686;-69
2022/12/31 04:59:31;;;;;;;23.10;12.55;;;;;;;5.96;87.17;98693.56;1777475;78;25542;-69
2022/12/31 05:01:58;;;;;;;17.25;9.55;;;;;;;6.05;87.12;98697.91;1777168;78;26003;-69
2022/12/31 05:04:24;;;;;;;13.03;7.90;;;;;;;6.10;87.06;98704.66;1803524;78;28184;-69
2022/12/31 05:06:50;;;;;;;22.77;11.50;;;;;;;6.18;87.09;98701.06;1802958;78;25749;-69
2022/12/31 05:09:17;;;;;;;17.55;8.93;;;;;;;6.22;86.93;98704.86;1777117;78;25686;-69
2022/12/31 05:11:43;;;;;;;19.85;10.78;;;;;;;6.24;87.30;98701.29;1801566;78;25618;-69
2022/12/31 05:14:10;;;;;;;16.37;8.68;;;;;;;6.26;87.31;98700.47;1801006;78;25665;-69
2022/12/31 05:16:36;;;;;;;15.98;7.65;;;;;;;6.28;87.52;98677.88;1800583;78;27296;-69
2022/12/31 05:19:05;;;;;;;12.00;6.45;;;;;;;6.34;87.60;98677.28;1801292;78;25759;-69
2022/12/31 05:21:30;;;;;;;16.37;8.60;;;;;;;6.37;87.50;98680.25;1801211;78;25609;-69
2022/12/31 05:23:56;;;;;;;15.48;7.25;;;;;;;6.42;87.37;98682.66;1774919;78;25595;-68
2022/12/31 05:26:22;;;;;;;13.32;7.20;;;;;;;6.49;87.67;98674.42;1775372;78;25674;-68
2022/12/31 05:28:49;;;;;;;14.60;7.15;;;;;;;6.55;87.37;98681.98;1834675;76;27411;-67
2022/12/31 05:31:15;;;;;;;18.82;9.60;;;;;;;6.62;87.25;98683.03;1836524;76;25773;-69
2022/12/31 05:33:41;;;;;;;13.35;7.47;;;;;;;6.64;86.96;98682.17;1747878;78;25751;-69
2022/12/31 05:36:07;;;;;;;13.20;8.15;;;;;;;6.67;87.03;98683.53;1788604;78;26474;-69
2022/12/31 05:38:34;;;;;;;14.38;7.83;;;;;;;6.70;86.79;98685.11;1788870;78;25617;-69
2022/12/31 05:41:05;;;;;;;13.70;8.25;;;;;;;6.72;86.67;98686.19;1788976;78;27211;-69
2022/12/31 05:43:32;;;;;;;14.73;8.20;;;;;;;6.74;86.64;98685.36;1789264;78;25767;-69
2022/12/31 05:46:03;;;;;;;15.10;8.48;;;;;;;6.74;86.60;98694.33;1763023;78;25446;-68
2022/12/31 05:48:30;;;;;;;16.23;8.20;;;;;;;6.73;86.73;98693.25;1788251;78;25707;-68
2022/12/31 05:50:57;;;;;;;23.77;10.20;;;;;;;6.73;87.09;98698.16;1788652;78;25706;-68
2022/12/31 05:53:24;;;;;;;18.17;9.80;;;;;;;6.76;86.86;98689.95;1784603;78;27938;-68
2022/12/31 05:55:50;;;;;;;15.13;8.25;;;;;;;6.76;86.66;98690.78;1785123;76;25753;-67
2022/12/31 05:58:16;;;;;;;12.82;8.28;;;;;;;6.78;86.87;98695.94;1757884;76;25767;-68
2022/12/31 06:00:43;;;;;;;12.03;6.80;;;;;;;6.80;86.77;98704.64;1840556;77;25696;-68
2022/12/31 06:03:09;;;;;;;16.27;8.38;;;;;;;6.81;87.00;98704.89;1822371;77;25860;-69
2022/12/31 06:05:42;;;;;;;11.80;7.45;;;;;;;6.87;86.82;98717.38;1795240;77;27430;-68
2022/12/31 06:08:10;;;;;;;12.23;7.08;;;;;;;6.91;86.68;98717.62;1822504;77;25821;-69
2022/12/31 06:10:36;;;;;;;8.90;4.70;;;;;;;6.96;86.65;98724.36;1796001;77;25802;-69
2022/12/31 06:13:03;;;;;;;10.35;5.67;;;;;;;6.97;86.88;98720.52;1758151;77;27561;-69
2022/12/31 06:15:29;;;;;;;16.57;8.80;;;;;;;7.00;86.73;98709.05;1822366;77;25737;-68
2022/12/31 06:17:55;;;;;;;16.35;9.48;;;;;;;7.05;86.54;98710.12;1795973;77;27610;-69
2022/12/31 06:20:21;;;;;;;14.58;8.88;;;;;;;7.06;86.47;98714.46;1795662;77;26128;-69
2022/12/31 06:22:48;;;;;;;11.35;7.28;;;;;;;7.03;86.40;98715.28;1822302;77;25818;-69
2022/12/31 06:25:14;;;;;;;11.30;6.80;;;;;;;7.00;86.50;98721.88;1822873;77;25734;-69
2022/12/31 06:27:40;;;;;;;24.25;13.20;;;;;;;6.96;86.45;98720.27;1769988;77;25778;-69
2022/12/31 06:30:09;;;;;;;16.57;9.00;;;;;;;6.97;86.34;98713.72;1795914;77;27370;-70
2022/12/31 06:32:35;;;;;;;16.07;10.23;;;;;;;6.96;86.32;98723.53;1814200;77;25718;-69
2022/12/31 06:35:01;;;;;;;22.17;11.12;;;;;;;6.97;86.25;98717.01;1822519;77;25754;-68
2022/12/31 06:37:27;;;;;;;17.52;9.85;;;;;;;6.97;86.06;98714.28;1795816;77;25660;-68
2022/12/31 06:39:53;;;;;;;27.50;11.60;;;;;;;6.98;86.00;98725.44;1795448;77;25685;-68
2022/12/31 06:42:20;;;;;;;18.67;9.63;;;;;;;6.97;86.00;98712.92;1822814;77;28391;-68
2022/12/31 06:44:46;;;;;;;16.57;9.13;;;;;;;6.96;86.12;98718.09;1822893;77;26414;-68
2022/12/31 06:47:12;;;;;;;24.72;14.35;;;;;;;6.95;86.15;98725.47;1795515;77;25751;-68
2022/12/31 06:49:42;;;;;;;18.55;10.50;;;;;;;6.95;86.23;98721.92;1756489;77;25642;-68
2022/12/31 06:52:11;;;;;;;17.27;9.45;;;;;;;6.96;86.12;98735.26;1822699;77;25759;-68
2022/12/31 06:54:40;;;;;;;15.95;9.35;;;;;;;6.93;86.26;98732.31;1804320;77;27267;-68
2022/12/31 06:57:16;;;;;;;17.87;8.93;;;;;;;6.94;86.12;98738.02;1808634;77;25876;-68
2022/12/31 06:59:44;;;;;;;15.45;8.38;;;;;;;6.91;85.97;98747.59;1824530;77;25604;-69
2022/12/31 07:02:31;;;;;;;13.78;7.55;;;;;;;6.83;86.21;98749.02;1823639;77;27078;-68
2022/12/31 07:05:38;;;;;;;18.48;9.78;;;;;;;6.77;86.46;98752.31;1823244;77;25667;-68
2022/12/31 07:08:28;;;;;;;20.12;11.00;;;;;;;6.75;86.42;98753.17;1809539;77;27274;-68
2022/12/31 07:11:03;;;;;;;21.77;11.10;;;;;;;6.75;86.35;98760.52;1824645;77;25537;-68
2022/12/31 07:13:51;;;;;;;14.90;8.03;;;;;;;6.75;86.30;98766.78;1826285;77;25504;-68
2022/12/31 07:16:44;;;;;;;13.15;8.30;;;;;;;6.75;86.65;98770.05;1826137;77;25504;-67
2022/12/31 07:19:31;;;;;;;15.45;8.05;;;;;;;6.74;86.40;98772.52;1852220;77;25696;-68
2022/12/31 07:21:59;;;;;;;15.65;7.90;;;;;;;6.74;86.54;98771.95;1826462;77;27098;-68
2022/12/31 07:24:27;;;;;;;14.38;8.25;;;;;;;6.79;87.07;98769.73;1799160;77;25775;-69
2022/12/31 07:27:08;;;;;;;20.50;12.85;;;;;;;6.84;86.71;98758.80;1773604;77;25702;-69
2022/12/31 07:30:05;;;;;;;12.23;7.00;;;;;;;6.88;86.99;98756.33;1851071;77;27578;-69
2022/12/31 07:33:08;;;;;;;19.25;10.72;;;;;;;6.95;87.33;98762.25;1851856;77;25618;-68
2022/12/31 07:36:11;;;;;;;17.90;10.25;;;;;;;7.05;87.04;98766.77;1852200;77;27357;-69
2022/12/31 07:39:02;;;;;;;10.48;6.12;;;;;;;7.15;86.69;98777.59;1826238;77;25739;-68
2022/12/31 07:42:12;;;;;;;16.40;8.63;;;;;;;7.18;86.73;98783.55;1825917;77;25718;-68
2022/12/31 07:44:53;;;;;;;11.73;6.00;;;;;;;7.23;86.40;98782.94;1851992;77;27586;-68
2022/12/31 07:47:23;;;;;;;13.55;6.80;;;;;;;7.28;86.73;98767.91;1826271;77;25514;-68
2022/12/31 07:49:52;;;;;;;13.32;7.78;;;;;;;7.37;86.64;98761.27;1799331;77;27480;-68
2022/12/31 07:52:20;;;;;;;13.85;7.72;;;;;;;7.43;86.51;98766.67;1799527;77;25610;-69
2022/12/31 07:54:47;;;;;;;17.10;10.68;;;;;;;7.51;86.30;98775.02;1825924;77;25702;-68
2022/12/31 07:57:17;;;;;;;15.08;8.28;;;;;;;7.57;86.01;98772.25;1826391;77;25751;-67
2022/12/31 08:00:06;;;;;;;14.38;7.47;;;;;;;7.62;85.96;98768.08;1827204;77;25472;-67
2022/12/31 08:03:10;;;;;;;17.70;7.97;;;;;;;7.68;85.97;98772.36;1848031;77;28288;-67
2022/12/31 08:05:54;;;;;;;15.20;7.70;;;;;;;7.74;85.81;98771.20;1852503;77;25565;-67
2022/12/31 08:08:34;;;;;;;16.05;7.75;;;;;;;7.80;85.63;98778.77;1851871;77;25411;-67
2022/12/31 08:11:30;;;;;;;10.50;5.80;;;;;;;7.87;85.58;98773.78;1783768;80;25742;-67
2022/12/31 08:14:01;;;;;;;15.00;7.95;;;;;;;7.90;85.56;98788.75;1757718;81;25728;-67
2022/12/31 08:16:29;;;;;;;13.50;8.33;;;;;;;7.95;85.51;98786.50;1733144;81;27519;-67
2022/12/31 08:18:57;;;;;;;12.15;7.03;;;;;;;8.01;85.48;98786.12;1732768;81;25723;-67
2022/12/31 08:21:44;;;;;;;14.90;8.63;;;;;;;8.09;85.08;98785.23;1733094;81;25742;-67
2022/12/31 08:24:24;;;;;;;14.05;7.20;;;;;;;8.14;84.87;98771.50;1756644;81;25484;-67
2022/12/31 08:27:01;;;;;;;12.33;6.58;;;;;;;8.22;84.62;98746.28;1733201;81;25514;-67
2022/12/31 08:30:03;;;;;;;12.65;7.25;;;;;;;8.35;84.16;98763.81;1730555;81;27255;-67
2022/12/31 08:33:10;;;;;;;13.45;7.10;;;;;;;8.47;83.87;98758.47;1757628;81;25719;-68
2022/12/31 08:36:21;;;;;;;13.40;6.50;;;;;;;8.56;83.50;98755.90;1732894;81;25715;-67
2022/12/31 08:39:07;;;;;;;15.00;7.33;;;;;;;8.63;83.25;98764.52;1732708;81;26335;-68
2022/12/31 08:41:41;;;;;;;18.92;10.03;;;;;;;8.68;83.17;98774.01;1733146;81;25661;-67
2022/12/31 08:44:40;;;;;;;13.18;8.13;;;;;;;8.72;83.27;98788.69;1733050;81;28024;-67
2022/12/31 08:47:28;;;;;;;13.45;7.05;;;;;;;8.76;83.47;98782.91;1771757;78;25515;-67
2022/12/31 08:50:17;;;;;;;8.70;4.95;;;;;;;8.78;83.46;98768.37;1795297;78;25621;-68
2022/12/31 08:52:56;;;;;;;7.17;4.90;;;;;;;8.85;83.78;98768.00;1794783;78;25662;-67
2022/12/31 08:55:38;;;;;;;8.33;4.62;;;;;;;8.96;83.95;98775.47;1796826;78;25761;-67
2022/12/31 08:58:21;;;;;;;8.73;4.80;;;;;;;9.07;83.79;98777.44;1796333;78;25908;-67
2022/12/31 09:00:56;;;;;;;9.10;4.37;;;;;;;9.16;83.68;98775.63;1694130;84;25976;-67
2022/12/31 09:04:00;;;;;;;18.50;8.60;;;;;;;9.23;83.33;98790.30;1700819;84;25490;-67
2022/12/31 09:06:56;;;;;;;14.38;7.05;;;;;;;9.28;83.36;98788.84;1676958;84;25828;-67
2022/12/31 09:09:46;;;;;;;20.23;8.73;;;;;;;9.39;83.12;98795.48;1700674;84;26456;-67
2022/12/31 09:12:27;;;;;;;17.25;7.53;;;;;;;9.43;83.24;98784.73;1695676;84;27486;-67
2022/12/31 09:14:58;;;;;;;12.63;5.83;;;;;;;9.45;83.39;98780.59;1695736;84;25784;-67
2022/12/31 09:17:47;;;;;;;12.40;6.47;;;;;;;9.45;83.68;98785.25;1661777;84;25735;-67
2022/12/31 09:20:21;;;;;;;14.68;7.30;;;;;;;9.47;83.64;98788.50;1672088;84;25856;-68
2022/12/31 09:22:49;;;;;;;10.13;5.70;;;;;;;9.44;83.67;98782.27;1672081;84;25811;-68
2022/12/31 09:25:18;;;;;;;8.98;5.10;;;;;;;9.49;83.66;98777.50;1639957;84;27293;-68
2022/12/31 09:28:14;;;;;;;11.15;5.35;;;;;;;9.54;83.57;98763.73;1662122;84;25883;-68
2022/12/31 09:30:54;;;;;;;11.73;6.47;;;;;;;9.62;83.48;98767.66;1695340;84;25505;-68
2022/12/31 09:34:01;;;;;;;4.67;3.10;;;;;;;9.76;83.39;98778.59;1670391;84;25819;-68
2022/12/31 09:36:38;;;;;;;8.78;4.87;;;;;;;9.87;83.00;98775.64;1701267;78;25538;-68
2022/12/31 09:39:40;;;;;;;6.70;3.42;;;;;;;10.00;82.92;98776.75;1822635;78;27544;-68
2022/12/31 09:42:48;;;;;;;8.75;4.35;;;;;;;10.10;82.51;98779.27;1797249;78;25433;-68
2022/12/31 09:45:47;;;;;;;10.00;4.17;;;;;;;10.20;82.57;98773.31;1821602;78;25595;-67
2022/12/31 09:48:40;;;;;;;6.12;3.77;;;;;;;10.27;82.36;98770.95;1726196;82;25814;-68
2022/12/31 09:51:31;;;;;;;10.60;4.83;;;;;;;10.31;82.23;98771.97;1725404;82;25618;-67
2022/12/31 09:54:30;;;;;;;6.78;3.87;;;;;;;10.39;82.14;98784.92;1706445;82;27945;-67
2022/12/31 09:57:26;;;;;;;10.28;5.22;;;;;;;10.48;82.00;98782.86;1730037;82;25841;-66
2022/12/31 10:00:10;;;;;;;7.20;3.90;;;;;;;10.57;81.76;98770.03;1730020;82;25470;-66
2022/12/31 10:03:09;;;;;;;4.47;2.55;;;;;;;10.68;81.75;98771.94;1691943;82;25656;-66
2022/12/31 10:06:17;;;;;;;4.22;2.80;;;;;;;10.75;80.89;98762.74;1730508;82;25639;-66
2022/12/31 10:09:22;;;;;;;8.03;4.72;;;;;;;10.85;81.08;98759.50;1729925;82;27450;-66
2022/12/31 10:12:21;;;;;;;6.90;3.65;;;;;;;10.94;80.86;98774.05;1732398;82;25804;-67
2022/12/31 10:15:19;;;;;;;5.15;3.00;;;;;;;11.00;80.58;98775.53;1735530;82;25783;-69
2022/12/31 10:18:11;;;;;;;4.80;2.52;;;;;;;11.09;80.40;98759.70;1734953;82;25724;-67
2022/12/31 10:21:05;;;;;;;4.40;2.87;;;;;;;11.13;79.68;98752.45;1701208;82;25462;-67
2022/12/31 10:24:06;;;;;;;8.78;4.58;;;;;;;11.22;79.67;98754.68;1735487;82;27455;-67
2022/12/31 10:27:09;;;;;;;4.42;2.47;;;;;;;11.40;79.79;98756.94;1727431;82;32811;-67
2022/12/31 10:30:04;;;;;;;13.58;6.15;;;;;;;11.69;78.49;98753.97;1731149;82;25506;-66
2022/12/31 10:32:59;;;;;;;6.85;3.25;;;;;;;12.04;78.26;98750.70;1731504;82;26065;-66
2022/12/31 10:35:39;;;;;;;8.70;4.50;;;;;;;12.47;76.19;98750.28;1706902;82;25604;-66
2022/12/31 10:38:31;;;;;;;8.63;4.53;;;;;;;12.85;75.75;98766.09;1731917;82;27414;-67
2022/12/31 10:41:26;;;;;;;7.70;3.15;;;;;;;13.03;74.45;98762.73;1731141;82;25947;-67
2022/12/31 10:44:31;;;;;;;7.35;3.65;;;;;;;13.17;73.26;98758.41;1702978;82;25779;-67
2022/12/31 10:47:44;;;;;;;4.33;2.80;;;;;;;13.37;74.64;98766.26;1706729;82;25819;-67
2022/12/31 10:50:40;;;;;;;3.62;2.50;;;;;;;13.52;72.97;98769.05;1730949;82;25801;-68
2022/12/31 10:53:46;;;;;;;4.53;3.22;;;;;;;13.86;72.12;98770.03;1706500;82;27324;-67
2022/12/31 10:56:42;;;;;;;4.67;2.90;;;;;;;13.86;72.12;98770.03;1705621;82;25736;-67
2022/12/31 10:59:57;;;;;;;5.35;3.67;;;;;;;13.90;71.80;98763.27;1731043;82;25614;-68
2022/12/31 11:03:16;;;;;;;5.55;3.45;;;;;;;13.97;71.90;98769.08;1759082;78;26430;-67
2022/12/31 11:06:00;;;;;;;7.03;4.33;;;;;;;14.03;71.11;98755.34;1802354;78;25430;-69
2022/12/31 11:08:44;;;;;;;6.05;3.65;;;;;;;14.08;70.47;98746.63;1794617;79;27491;-67
2022/12/31 11:11:50;;;;;;;7.53;4.20;;;;;;;14.14;70.21;98757.10;1784910;79;25741;-67
2022/12/31 11:14:40;;;;;;;7.08;4.22;;;;;;;14.21;69.86;98759.34;1753578;81;25835;-67
2022/12/31 11:17:35;;;;;;;8.00;4.50;;;;;;;14.33;70.02;98763.31;1753511;81;25756;-68
2022/12/31 11:20:24;;;;;;;7.65;4.35;;;;;;;14.38;69.53;98756.20;1727296;81;25751;-68
2022/12/31 11:23:16;;;;;;;9.78;5.35;;;;;;;14.48;69.52;98753.63;1753279;81;27570;-69
2022/12/31 11:26:03;;;;;;;8.88;5.28;;;;;;;14.57;68.71;98761.25;1753879;81;25742;-68
2022/12/31 11:28:55;;;;;;;6.87;3.83;;;;;;;14.63;68.81;98770.11;1754163;81;25596;-68
2022/12/31 11:31:51;;;;;;;10.50;4.45;;;;;;;14.58;68.26;98772.50;1727466;81;25825;-67
2022/12/31 11:34:38;;;;;;;7.17;4.50;;;;;;;14.57;67.65;98768.70;1726305;81;25656;-67
2022/12/31 11:37:47;;;;;;;24.20;17.95;;;;;;;14.46;68.21;98768.30;1727332;81;27483;-67
2022/12/31 11:40:46;;;;;;;9.33;6.08;;;;;;;14.30;68.24;98768.34;1753247;81;25644;-66
2022/12/31 11:43:40;;;;;;;21.95;10.82;;;;;;;14.16;68.22;98763.66;1753530;81;25735;-67
2022/12/31 11:46:24;;;;;;;9.48;5.10;;;;;;;13.74;68.63;98749.27;1749818;80;26150;-68
2022/12/31 11:49:05;;;;;;;6.67;4.08;;;;;;;13.74;68.63;98749.27;1787693;80;25643;-66
2022/12/31 11:52:27;;;;;;;6.10;4.10;;;;;;;13.59;69.24;98750.09;1761886;80;27466;-66
2022/12/31 11:55:27;;;;;;;8.43;5.12;;;;;;;13.40;69.42;98762.84;1788866;80;25760;-66
2022/12/31 11:57:58;;;;;;;9.15;3.98;;;;;;;13.22;69.93;98753.30;1762405;80;25453;-66
2022/12/31 12:00:26;;;;;;;5.80;3.85;;;;;;;13.09;70.45;98748.78;1763142;80;26469;-67
2022/12/31 12:03:04;;;;;;;5.35;3.40;;;;;;;12.93;70.86;98752.88;1762237;80;25806;-67
2022/12/31 12:05:31;;;;;;;8.43;3.90;;;;;;;12.88;71.23;98757.19;1762338;80;28101;-67
2022/12/31 12:07:58;;;;;;;6.08;3.77;;;;;;;12.80;71.53;98753.88;1736848;80;25720;-67
2022/12/31 12:10:32;;;;;;;7.55;3.72;;;;;;;12.77;71.65;98762.77;1712819;80;25629;-68
2022/12/31 12:12:59;;;;;;;8.18;3.85;;;;;;;12.78;71.88;98754.20;1755123;80;26516;-67
2022/12/31 12:15:34;;;;;;;6.53;4.42;;;;;;;12.75;72.00;98747.98;1713190;80;25405;-67
2022/12/31 12:18:11;;;;;;;48.33;21.42;;;;;;;12.67;71.58;98744.11;1732759;80;27362;-68
2022/12/31 12:20:39;;;;;;;429.70;152.07;;;;;;;12.67;71.58;98744.11;1788667;80;25465;-67
2022/12/31 12:23:20;;;;;;;343.77;121.85;;;;;;;12.56;71.96;98752.46;1762226;80;25486;-66
2022/12/31 12:25:47;;;;;;;127.50;34.00;;;;;;;12.39;72.61;98734.03;1788167;80;25684;-67